Time;durP1;ratioP1;P1;durP2;ratioP2;P2;SDS_P1;SDS_P2;PMS_P1;PMS_P2;Temp;Humidity;BMP_temperature;BMP_pressure;BME280_temperature;BME280_humidity;BME280_pressure;Samples;Min_cycle;Max_cycle;Signal;HPM_P1;HPM_P2
2021/08/14 00:01:56;;;;;;;8.27;2.72;;;17.60;78.10;;;;;;5013681;28;20040;-66
2021/08/14 00:04:22;;;;;;;8.00;2.22;;;17.60;78.40;;;;;;5030427;28;20024;-67
2021/08/14 00:06:47;;;;;;;7.28;2.45;;;17.70;78.00;;;;;;5031106;28;20430;-65
2021/08/14 00:09:13;;;;;;;8.00;2.30;;;17.90;77.30;;;;;;5012987;28;20029;-67
2021/08/14 00:11:38;;;;;;;6.55;2.25;;;18.00;78.30;;;;;;5030712;28;20037;-66
2021/08/14 00:14:04;;;;;;;5.70;2.05;;;17.60;78.10;;;;;;5031664;28;20025;-66
2021/08/14 00:16:29;;;;;;;10.07;2.45;;;17.50;78.30;;;;;;5030949;28;20494;-67
2021/08/14 00:18:55;;;;;;;9.43;2.72;;;17.50;79.60;;;;;;5030816;28;20021;-69
2021/08/14 00:21:20;;;;;;;7.75;2.67;;;17.80;78.40;;;;;;5031488;28;20025;-66
2021/08/14 00:23:46;;;;;;;8.07;2.60;;;17.60;78.00;;;;;;5030699;28;20033;-66
2021/08/14 00:26:11;;;;;;;8.57;2.60;;;17.30;79.30;;;;;;5013206;28;20022;-68
2021/08/14 00:28:37;;;;;;;7.90;2.67;;;17.10;80.00;;;;;;5019375;28;20032;-66
2021/08/14 00:31:03;;;;;;;9.32;2.80;;;17.00;80.50;;;;;;5015750;28;20403;-67
2021/08/14 00:33:29;;;;;;;7.45;2.88;;;17.10;80.20;;;;;;5012907;28;20025;-66
2021/08/14 00:35:54;;;;;;;10.27;2.63;;;17.00;80.40;;;;;;5031191;28;20415;-66
2021/08/14 00:38:19;;;;;;;8.55;2.60;;;16.90;80.90;;;;;;5031401;28;20465;-66
2021/08/14 00:40:45;;;;;;;6.78;2.45;;;16.90;81.80;;;;;;5030322;28;20033;-68
2021/08/14 00:43:10;;;;;;;10.63;3.13;;;17.10;80.90;;;;;;5030644;28;20034;-64
2021/08/14 00:45:41;;;;;;;13.63;2.92;;;17.10;80.90;;;;;;5030780;28;20052;-68
2021/08/14 00:48:08;;;;;;;7.05;2.58;;;17.00;81.60;;;;;;5030612;28;20021;-67
2021/08/14 00:50:35;;;;;;;8.35;2.95;;;16.80;81.50;;;;;;5013238;28;20714;-66
2021/08/14 00:53:01;;;;;;;9.73;2.97;;;16.70;82.30;;;;;;5030242;28;20037;-67
2021/08/14 00:55:26;;;;;;;9.52;2.80;;;16.60;82.30;;;;;;5030331;28;20430;-69
2021/08/14 00:57:52;;;;;;;8.40;2.75;;;16.60;82.60;;;;;;5030425;28;20025;-66
2021/08/14 01:00:17;;;;;;;10.25;2.92;;;16.60;82.70;;;;;;5031121;28;20036;-67
2021/08/14 01:02:43;;;;;;;8.13;2.75;;;16.50;82.60;;;;;;5012546;28;20075;-65
2021/08/14 01:05:10;;;;;;;7.45;2.90;;;16.60;83.60;;;;;;5030365;28;20108;-66
2021/08/14 01:07:36;;;;;;;9.15;2.80;;;16.60;83.40;;;;;;5030414;28;20071;-66
2021/08/14 01:10:01;;;;;;;8.73;2.83;;;16.60;84.20;;;;;;5012317;28;20030;-66
2021/08/14 01:12:27;;;;;;;8.18;2.60;;;16.60;83.80;;;;;;5030858;28;20070;-68
2021/08/14 01:14:53;;;;;;;8.95;3.00;;;16.80;82.30;;;;;;5012572;28;20029;-69
2021/08/14 01:17:19;;;;;;;7.55;2.70;;;16.80;81.50;;;;;;5030080;28;20021;-67
2021/08/14 01:19:46;;;;;;;7.25;2.55;;;16.70;81.80;;;;;;5030213;28;20478;-66
2021/08/14 01:22:13;;;;;;;6.53;2.85;;;16.60;82.90;;;;;;5013197;28;20101;-67
2021/08/14 01:24:40;;;;;;;9.60;3.33;;;16.50;84.10;;;;;;5011771;28;20033;-66
2021/08/14 01:27:06;;;;;;;9.90;3.13;;;16.50;84.30;;;;;;5012840;28;20376;-66
2021/08/14 01:32:02;;;;;;;9.60;2.90;;;16.30;83.30;;;;;;5053557;23;20076;-69
2021/08/14 01:34:28;;;;;;;10.52;2.88;;;16.30;84.20;;;;;;5022947;28;20059;-69
2021/08/14 01:36:53;;;;;;;9.18;2.80;;;16.40;83.90;;;;;;5036940;28;20029;-69
2021/08/14 01:39:19;;;;;;;8.25;3.05;;;16.50;83.80;;;;;;5072796;28;20020;-69
2021/08/14 01:42:00;;;;;;;9.07;2.90;;;16.50;83.50;;;;;;5074059;28;20021;-68
2021/08/14 01:44:27;;;;;;;10.23;3.05;;;16.50;83.20;;;;;;5056755;28;20031;-69
2021/08/14 01:46:53;;;;;;;8.48;2.97;;;16.40;83.50;;;;;;5055651;28;20021;-69
2021/08/14 01:49:19;;;;;;;9.50;2.88;;;16.30;84.20;;;;;;5074211;28;20028;-69
2021/08/14 01:51:45;;;;;;;8.30;3.10;;;16.30;84.40;;;;;;5073757;28;20025;-69
2021/08/14 01:54:11;;;;;;;9.80;2.90;;;16.30;83.90;;;;;;5055891;28;20853;-69
2021/08/14 01:56:37;;;;;;;9.98;2.90;;;16.40;83.90;;;;;;5074116;28;20029;-70
2021/08/14 01:59:03;;;;;;;7.78;3.10;;;16.40;83.90;;;;;;5074127;28;20501;-69
2021/08/14 02:01:29;;;;;;;11.10;3.03;;;16.30;83.70;;;;;;5072929;28;20025;-70
2021/08/14 02:03:55;;;;;;;10.18;2.88;;;16.30;84.10;;;;;;5074076;28;20021;-70
2021/08/14 02:06:23;;;;;;;9.38;2.83;;;16.20;84.80;;;;;;5074055;28;20048;-69
2021/08/14 02:08:48;;;;;;;8.80;3.50;;;16.30;85.60;;;;;;5055442;28;20111;-69
2021/08/14 02:11:16;;;;;;;12.23;3.05;;;16.40;84.70;;;;;;5073433;28;20623;-69
2021/08/14 02:13:43;;;;;;;9.07;3.30;;;16.40;84.40;;;;;;5073705;28;20030;-69
2021/08/14 02:16:11;;;;;;;10.20;3.40;;;16.40;85.70;;;;;;5071293;28;20028;-69
2021/08/14 02:18:37;;;;;;;11.48;3.20;;;16.30;85.20;;;;;;5055607;28;20103;-68
2021/08/14 02:21:03;;;;;;;9.75;3.30;;;16.30;85.20;;;;;;5073473;28;20031;-69
2021/08/14 02:23:29;;;;;;;8.68;3.22;;;16.30;85.20;;;;;;5073035;28;20016;-68
2021/08/14 02:25:55;;;;;;;9.45;2.90;;;16.30;85.20;;;;;;5068782;28;20037;-69
2021/08/14 02:28:21;;;;;;;10.10;3.20;;;16.30;85.50;;;;;;5069174;28;20021;-68
2021/08/14 02:30:47;;;;;;;12.38;3.20;;;16.20;86.00;;;;;;5070692;28;20064;-69
2021/08/14 02:33:12;;;;;;;11.35;3.40;;;16.30;85.60;;;;;;5073435;28;20481;-67
2021/08/14 02:35:38;;;;;;;9.50;2.92;;;16.30;86.10;;;;;;5055498;28;20028;-69
2021/08/14 02:38:03;;;;;;;11.68;3.67;;;16.20;85.90;;;;;;5072869;28;20445;-69
2021/08/14 02:40:29;;;;;;;12.48;3.47;;;16.40;85.00;;;;;;5072708;28;20048;-69
2021/08/14 02:42:54;;;;;;;9.10;3.15;;;16.30;85.70;;;;;;5073412;28;20067;-69
2021/08/14 02:45:20;;;;;;;13.00;3.42;;;16.20;86.50;;;;;;5072712;28;20028;-68
2021/08/14 02:47:45;;;;;;;12.18;3.60;;;16.20;86.80;;;;;;5073085;28;20103;-69
2021/08/14 02:50:12;;;;;;;9.18;3.58;;;16.20;86.60;;;;;;5071304;28;20436;-69
2021/08/14 02:52:38;;;;;;;8.48;2.88;;;16.10;87.00;;;;;;5072452;28;20036;-70
2021/08/14 02:55:04;;;;;;;10.55;3.42;;;16.30;85.60;;;;;;5055159;28;20067;-67
2021/08/14 02:57:29;;;;;;;9.43;3.00;;;16.40;85.50;;;;;;5071827;28;20051;-69
2021/08/14 02:59:55;;;;;;;12.35;4.00;;;16.40;85.40;;;;;;5065239;28;20134;-72
2021/08/14 03:02:20;;;;;;;10.13;3.80;;;16.20;86.30;;;;;;5055755;28;20040;-67
2021/08/14 03:04:46;;;;;;;10.98;3.45;;;16.10;86.50;;;;;;5035400;28;20482;-70
2021/08/14 03:07:11;;;;;;;10.63;4.05;;;16.00;87.20;;;;;;5047296;28;20050;-67
2021/08/14 03:09:37;;;;;;;12.52;3.60;;;16.20;86.70;;;;;;5072796;28;20024;-69
2021/08/14 03:12:03;;;;;;;9.40;3.50;;;16.20;86.10;;;;;;5072172;28;20401;-67
2021/08/14 03:14:28;;;;;;;10.60;4.03;;;16.10;86.80;;;;;;5071641;28;20041;-69
2021/08/14 03:16:54;;;;;;;9.80;3.35;;;16.10;87.10;;;;;;5071103;28;20027;-69
2021/08/14 03:19:19;;;;;;;10.13;3.53;;;16.10;87.70;;;;;;5066896;28;20033;-67
2021/08/14 03:21:45;;;;;;;9.85;3.70;;;16.20;87.30;;;;;;5071206;28;20078;-69
2021/08/14 03:24:10;;;;;;;11.20;3.80;;;16.20;87.00;;;;;;5072373;28;20025;-69
2021/08/14 03:26:36;;;;;;;9.50;3.50;;;16.30;87.20;;;;;;5068574;28;20477;-69
2021/08/14 03:29:02;;;;;;;9.80;3.30;;;16.20;86.40;;;;;;5067673;28;20532;-72
2021/08/14 03:31:27;;;;;;;11.07;3.70;;;16.20;87.40;;;;;;5049828;28;20485;-69
2021/08/14 03:33:53;;;;;;;9.68;3.65;;;16.30;87.10;;;;;;5052250;28;20041;-67
2021/08/14 03:36:19;;;;;;;9.73;3.40;;;16.20;87.00;;;;;;5050345;28;20112;-70
2021/08/14 03:38:45;;;;;;;10.68;4.13;;;16.20;87.40;;;;;;5051823;28;20033;-67
2021/08/14 03:41:11;;;;;;;10.07;3.80;;;16.50;87.30;;;;;;5050415;28;20029;-68
2021/08/14 03:43:37;;;;;;;13.45;4.05;;;16.50;86.40;;;;;;5034361;28;20082;-68
2021/08/14 03:46:03;;;;;;;9.85;3.78;;;16.40;86.60;;;;;;5050088;28;20501;-68
2021/08/14 03:48:29;;;;;;;9.95;3.42;;;16.60;86.20;;;;;;5051850;28;20040;-66
2021/08/14 03:50:55;;;;;;;12.70;3.80;;;16.50;86.80;;;;;;5051181;28;20449;-67
2021/08/14 03:53:20;;;;;;;11.38;3.60;;;16.60;85.90;;;;;;5050197;28;20068;-68
2021/08/14 03:55:46;;;;;;;11.07;3.40;;;16.40;86.70;;;;;;5062291;28;20098;-67
2021/08/14 03:58:11;;;;;;;10.52;4.10;;;16.50;86.20;;;;;;5053317;28;20035;-68
2021/08/14 04:00:38;;;;;;;12.07;4.38;;;16.50;86.70;;;;;;5061331;28;20025;-68
2021/08/14 04:03:03;;;;;;;9.85;3.80;;;16.40;87.10;;;;;;5045173;28;20430;-67
2021/08/14 04:05:29;;;;;;;10.45;3.97;;;16.60;88.20;;;;;;5049882;28;20033;-68
2021/08/14 04:07:55;;;;;;;12.38;4.20;;;16.50;86.20;;;;;;5053869;28;20037;-67
2021/08/14 04:10:20;;;;;;;11.57;3.92;;;16.50;86.90;;;;;;5050507;28;20025;-66
2021/08/14 04:12:46;;;;;;;12.15;3.63;;;16.50;87.20;;;;;;5051484;28;20493;-67
2021/08/14 04:15:12;;;;;;;12.40;4.10;;;16.60;85.40;;;;;;5047652;28;20033;-69
2021/08/14 04:17:38;;;;;;;10.48;3.70;;;16.50;85.60;;;;;;5035167;28;20097;-69
2021/08/14 04:20:04;;;;;;;11.20;3.90;;;16.50;86.50;;;;;;5041786;28;20730;-66
2021/08/14 04:22:30;;;;;;;11.43;4.18;;;16.50;86.20;;;;;;5039346;28;20036;-69
2021/08/14 04:24:56;;;;;;;11.63;4.15;;;16.40;86.20;;;;;;5043821;28;20033;-68
2021/08/14 04:27:21;;;;;;;9.05;3.33;;;16.30;86.30;;;;;;5025301;28;20116;-68
2021/08/14 04:29:47;;;;;;;10.95;4.03;;;16.50;86.10;;;;;;5027809;28;20046;-69
2021/08/14 04:32:13;;;;;;;10.30;4.47;;;16.50;86.10;;;;;;5049517;28;20017;-70
2021/08/14 04:34:38;;;;;;;11.35;4.22;;;16.60;85.80;;;;;;5042554;28;20051;-66
2021/08/14 04:37:04;;;;;;;10.68;3.90;;;16.60;85.40;;;;;;5025387;28;20021;-67
2021/08/14 04:39:30;;;;;;;11.30;4.45;;;16.60;85.20;;;;;;5052360;28;20824;-67
2021/08/14 04:41:55;;;;;;;11.50;4.45;;;16.60;86.10;;;;;;5045465;28;20119;-69
2021/08/14 04:44:21;;;;;;;13.18;4.45;;;16.70;85.30;;;;;;5062161;28;20021;-70
2021/08/14 04:46:47;;;;;;;9.38;4.40;;;16.60;85.40;;;;;;5063691;28;20035;-69
2021/08/14 04:49:13;;;;;;;12.05;4.38;;;16.60;85.50;;;;;;5064914;28;20036;-66
2021/08/14 04:51:39;;;;;;;13.45;4.82;;;16.60;84.90;;;;;;5064194;28;20639;-71
2021/08/14 04:54:05;;;;;;;12.45;4.53;;;16.60;85.40;;;;;;5046655;28;20035;-67
2021/08/14 04:56:30;;;;;;;10.30;4.35;;;16.70;84.90;;;;;;5064270;28;20017;-67
2021/08/14 04:58:56;;;;;;;10.23;4.60;;;16.70;85.10;;;;;;5067103;28;20027;-70
2021/08/14 05:01:21;;;;;;;14.75;4.80;;;16.70;85.30;;;;;;5068971;28;20016;-66
2021/08/14 05:03:47;;;;;;;12.23;4.53;;;16.90;84.30;;;;;;5070378;28;20474;-67
2021/08/14 05:06:12;;;;;;;9.55;4.20;;;16.90;85.20;;;;;;5070620;28;20033;-66
2021/08/14 05:08:38;;;;;;;12.23;4.85;;;16.90;84.80;;;;;;5070302;28;20032;-66
2021/08/14 05:11:04;;;;;;;13.00;5.05;;;17.00;84.50;;;;;;5070946;28;20036;-66
2021/08/14 05:13:30;;;;;;;13.05;4.68;;;16.90;83.80;;;;;;5063759;28;20031;-66
2021/08/14 05:15:55;;;;;;;10.70;4.50;;;17.00;84.10;;;;;;5057746;28;20025;-67
2021/08/14 05:18:21;;;;;;;14.20;4.43;;;17.00;83.80;;;;;;5054247;28;20025;-66
2021/08/14 05:20:46;;;;;;;11.45;4.07;;;17.10;84.10;;;;;;5069603;28;20482;-66
2021/08/14 05:23:12;;;;;;;12.52;4.65;;;17.10;83.80;;;;;;5060888;28;20067;-67
2021/08/14 05:25:38;;;;;;;9.90;4.00;;;17.20;83.60;;;;;;5053987;28;20324;-68
2021/08/14 05:28:04;;;;;;;10.30;4.25;;;17.30;82.90;;;;;;5067616;28;20041;-67
2021/08/14 05:30:29;;;;;;;8.43;3.55;;;17.30;83.40;;;;;;5052929;28;20053;-66
2021/08/14 05:32:55;;;;;;;11.18;4.40;;;17.50;83.00;;;;;;5068974;28;20059;-65
2021/08/14 05:35:20;;;;;;;12.65;4.63;;;17.70;83.20;;;;;;5072257;28;20028;-67
2021/08/14 05:37:46;;;;;;;10.93;3.97;;;17.80;83.90;;;;;;5072459;28;20016;-66
2021/08/14 05:40:12;;;;;;;13.98;4.45;;;17.90;82.40;;;;;;5071075;28;20021;-66
2021/08/14 05:42:38;;;;;;;10.95;4.43;;;18.00;82.30;;;;;;5051654;28;20035;-67
2021/08/14 05:45:04;;;;;;;9.40;4.22;;;18.00;82.50;;;;;;5052772;28;20028;-66
2021/08/14 05:47:29;;;;;;;11.13;4.10;;;18.10;81.30;;;;;;5052738;28;20078;-67
2021/08/14 05:49:55;;;;;;;10.80;4.32;;;18.20;81.30;;;;;;5033897;28;20059;-64
2021/08/14 05:52:21;;;;;;;12.07;4.32;;;18.40;79.10;;;;;;5034996;28;20075;-69
2021/08/14 05:54:47;;;;;;;11.07;4.30;;;18.50;79.10;;;;;;5057399;28;20040;-66
2021/08/14 05:57:12;;;;;;;9.68;4.20;;;18.80;78.70;;;;;;5053608;28;20037;-66
2021/08/14 05:59:38;;;;;;;15.80;4.30;;;18.90;78.40;;;;;;5069055;28;20083;-67
2021/08/14 06:02:03;;;;;;;11.40;4.57;;;19.10;76.80;;;;;;5053198;28;20025;-67
2021/08/14 06:04:29;;;;;;;9.77;4.05;;;19.20;76.90;;;;;;5064116;28;20029;-67
2021/08/14 06:06:55;;;;;;;8.43;4.10;;;19.50;76.40;;;;;;5034372;28;20397;-66
2021/08/14 06:09:20;;;;;;;8.82;3.85;;;19.90;74.80;;;;;;5052709;28;20096;-66
2021/08/14 06:11:46;;;;;;;12.88;4.30;;;20.10;73.70;;;;;;5051347;28;20025;-69
2021/08/14 06:14:11;;;;;;;8.82;3.65;;;20.40;72.90;;;;;;5053192;28;20395;-66
2021/08/14 06:16:38;;;;;;;12.30;3.75;;;20.40;71.90;;;;;;5052956;28;20029;-65
2021/08/14 06:19:03;;;;;;;10.32;3.92;;;20.50;71.60;;;;;;5053500;28;20730;-67
2021/08/14 06:21:29;;;;;;;10.23;3.50;;;20.70;71.70;;;;;;5051503;28;20063;-67
2021/08/14 06:23:54;;;;;;;13.00;3.97;;;20.60;71.20;;;;;;5053069;28;20063;-68
2021/08/14 06:26:20;;;;;;;9.85;3.70;;;20.50;71.50;;;;;;5037886;28;20028;-68
2021/08/14 06:28:45;;;;;;;8.48;3.97;;;20.50;71.80;;;;;;5052341;28;20486;-66
2021/08/14 06:31:11;;;;;;;11.43;3.85;;;20.50;72.30;;;;;;5043229;28;20534;-67
2021/08/14 06:33:36;;;;;;;9.65;3.63;;;20.50;71.90;;;;;;5065932;28;20433;-65
2021/08/14 06:36:02;;;;;;;10.73;3.80;;;20.50;72.10;;;;;;5034698;28;20611;-67
2021/08/14 06:38:28;;;;;;;14.10;4.22;;;20.40;72.40;;;;;;5053260;28;20092;-67
2021/08/14 06:40:53;;;;;;;8.95;3.70;;;20.50;71.70;;;;;;5034409;28;20025;-67
2021/08/14 06:43:19;;;;;;;8.82;3.53;;;20.50;71.90;;;;;;5052631;28;20032;-66
2021/08/14 06:45:44;;;;;;;10.60;3.80;;;20.50;71.30;;;;;;5052906;28;20032;-67
2021/08/14 06:48:10;;;;;;;11.25;3.78;;;20.50;71.00;;;;;;5064686;28;20027;-66
2021/08/14 06:50:35;;;;;;;10.00;3.40;;;20.60;71.30;;;;;;5070360;28;20521;-66
2021/08/14 06:53:01;;;;;;;9.38;3.47;;;20.60;70.30;;;;;;5049009;28;20383;-67
2021/08/14 06:55:26;;;;;;;10.02;3.15;;;20.60;70.10;;;;;;5051044;28;20042;-67
2021/08/14 06:57:52;;;;;;;9.73;3.03;;;20.30;69.90;;;;;;5058669;28;20071;-68
2021/08/14 07:00:18;;;;;;;9.68;3.20;;;20.60;70.00;;;;;;5066358;28;20024;-66
2021/08/14 07:02:43;;;;;;;9.82;3.65;;;21.10;69.20;;;;;;5052577;28;20037;-66
2021/08/14 07:05:10;;;;;;;8.07;3.13;;;21.50;67.90;;;;;;5051772;28;20108;-67
2021/08/14 07:07:35;;;;;;;9.57;3.22;;;21.80;66.00;;;;;;5034643;28;20028;-66
2021/08/14 07:10:03;;;;;;;8.93;2.97;;;21.90;65.30;;;;;;5067633;28;20087;-67
2021/08/14 07:12:28;;;;;;;11.95;3.58;;;22.00;65.00;;;;;;5052053;28;20737;-66
2021/08/14 07:14:55;;;;;;;8.48;3.03;;;21.90;63.70;;;;;;5052254;28;20029;-67
2021/08/14 07:17:21;;;;;;;9.48;2.90;;;22.00;64.50;;;;;;5052205;28;20528;-65
2021/08/14 07:19:46;;;;;;;8.80;3.58;;;22.30;63.40;;;;;;5051793;28;20037;-66
2021/08/14 07:22:12;;;;;;;7.97;3.22;;;22.30;63.10;;;;;;5051359;28;20094;-65
2021/08/14 07:24:38;;;;;;;9.43;3.40;;;22.80;61.50;;;;;;5050813;28;20442;-67
2021/08/14 07:27:04;;;;;;;11.25;4.40;;;22.80;62.00;;;;;;5051776;28;20025;-67
2021/08/14 07:29:29;;;;;;;11.00;4.68;;;22.50;61.90;;;;;;5051474;28;20029;-67
2021/08/14 07:31:55;;;;;;;10.95;4.75;;;22.20;63.10;;;;;;5066320;28;20029;-66
2021/08/14 07:34:20;;;;;;;9.85;4.15;;;22.20;63.40;;;;;;5048626;28;20040;-66
2021/08/14 07:36:46;;;;;;;12.60;4.97;;;22.60;62.30;;;;;;5051701;28;20028;-66
2021/08/14 07:39:11;;;;;;;12.93;4.90;;;22.80;62.50;;;;;;5049668;28;20084;-64
2021/08/14 07:41:37;;;;;;;12.48;5.95;;;22.80;62.30;;;;;;5050604;28;20025;-67
2021/08/14 07:44:02;;;;;;;12.90;6.35;;;22.70;63.10;;;;;;5051484;28;20021;-67
2021/08/14 07:46:28;;;;;;;13.43;4.50;;;22.60;63.10;;;;;;5041414;28;20037;-66
2021/08/14 07:48:53;;;;;;;11.05;4.15;;;22.60;63.40;;;;;;5050674;28;20036;-66
2021/08/14 07:51:19;;;;;;;13.43;6.70;;;22.60;64.00;;;;;;5031651;28;20037;-67
2021/08/14 07:53:44;;;;;;;12.07;5.70;;;22.80;63.40;;;;;;5049719;28;20036;-66
2021/08/14 07:56:10;;;;;;;14.30;6.07;;;22.90;63.40;;;;;;5050039;28;20040;-65
2021/08/14 07:58:36;;;;;;;14.98;6.15;;;23.10;63.20;;;;;;5031301;28;20070;-66
2021/08/14 08:01:01;;;;;;;11.55;5.60;;;23.20;62.60;;;;;;5049106;28;20032;-67
2021/08/14 08:03:27;;;;;;;13.27;7.07;;;23.50;62.10;;;;;;5050504;28;20463;-68
2021/08/14 08:05:52;;;;;;;12.13;6.50;;;23.30;62.20;;;;;;5049972;28;20029;-67
2021/08/14 08:08:18;;;;;;;14.43;7.43;;;23.20;63.20;;;;;;5048420;28;20032;-68
2021/08/14 08:10:44;;;;;;;15.65;7.93;;;23.20;62.50;;;;;;5049192;28;20398;-67
2021/08/14 08:13:09;;;;;;;15.35;7.68;;;23.30;62.60;;;;;;5065245;28;20025;-65
2021/08/14 08:15:35;;;;;;;14.43;7.47;;;23.40;62.20;;;;;;5030043;28;20036;-66
2021/08/14 08:18:00;;;;;;;15.48;8.07;;;23.60;61.80;;;;;;5032195;28;20056;-69
2021/08/14 08:20:26;;;;;;;14.32;7.55;;;23.80;61.00;;;;;;5031633;28;20035;-67
2021/08/14 08:22:52;;;;;;;14.65;7.38;;;24.00;60.30;;;;;;5033888;28;20339;-68
2021/08/14 08:25:19;;;;;;;17.10;7.03;;;24.10;61.10;;;;;;5047937;28;20047;-74
2021/08/14 08:27:47;;;;;;;21.52;6.15;;;24.10;61.50;;;;;;5062445;28;20035;-75
2021/08/14 08:30:16;;;;;;;14.52;7.18;;;23.90;61.70;;;;;;5046138;28;20032;-74
2021/08/14 08:32:42;;;;;;;18.08;7.90;;;23.90;62.50;;;;;;5053227;28;20071;-74
2021/08/14 08:35:08;;;;;;;13.25;6.80;;;24.40;60.30;;;;;;5037909;28;20029;-74
2021/08/14 08:37:34;;;;;;;14.57;6.18;;;24.50;60.40;;;;;;5063457;28;20032;-74
2021/08/14 08:39:59;;;;;;;21.08;6.25;;;24.60;59.30;;;;;;5040252;28;20486;-73
2021/08/14 08:42:25;;;;;;;15.65;6.75;;;24.80;58.10;;;;;;5053555;28;20386;-72
2021/08/14 08:44:51;;;;;;;13.43;5.75;;;24.80;58.10;;;;;;5053106;28;20033;-67
2021/08/14 08:47:19;;;;;;;11.65;6.13;;;24.40;59.10;;;;;;5049387;28;20028;-70
2021/08/14 08:49:54;;;;;;;11.27;5.20;;;24.60;59.10;;;;;;5050887;28;20479;-71
2021/08/14 08:52:20;;;;;;;12.30;5.93;;;24.40;58.20;;;;;;5050951;28;20075;-69
2021/08/14 08:54:51;;;;;;;11.90;5.28;;;24.60;57.90;;;;;;5050307;28;20452;-70
2021/08/14 08:57:17;;;;;;;11.67;5.20;;;24.40;57.80;;;;;;5049572;28;20021;-72
2021/08/14 08:59:45;;;;;;;10.50;5.15;;;24.50;57.90;;;;;;5062052;28;20086;-70
2021/08/14 09:02:30;;;;;;;10.68;4.70;;;24.70;57.10;;;;;;5058448;28;20036;-69
2021/08/14 09:05:04;;;;;;;11.45;4.75;;;24.10;59.40;;;;;;5043782;28;20025;-70
2021/08/14 09:07:30;;;;;;;11.50;4.28;;;24.40;58.90;;;;;;5036078;28;20081;-68
2021/08/14 09:09:59;;;;;;;12.55;4.85;;;24.40;58.80;;;;;;5049824;28;20060;-73
2021/08/14 09:12:30;;;;;;;8.43;3.90;;;24.60;58.70;;;;;;5030378;28;20032;-71
2021/08/14 09:14:56;;;;;;;8.02;3.50;;;25.10;57.10;;;;;;5050411;28;20390;-71
2021/08/14 09:17:28;;;;;;;8.65;3.58;;;24.90;56.70;;;;;;5049090;28;20044;-71
2021/08/14 09:20:12;;;;;;;8.75;3.35;;;24.30;58.90;;;;;;5053197;28;20029;-71
2021/08/14 09:22:38;;;;;;;10.43;3.67;;;24.30;57.70;;;;;;5069060;28;20116;-68
2021/08/14 09:25:14;;;;;;;9.30;3.88;;;24.50;55.70;;;;;;5036551;28;20036;-68
2021/08/14 09:27:57;;;;;;;10.68;4.00;;;24.70;55.00;;;;;;5047793;28;20112;-69
2021/08/14 09:30:45;;;;;;;10.80;3.80;;;24.80;54.30;;;;;;5048241;28;20028;-69
2021/08/14 09:33:13;;;;;;;8.98;2.85;;;24.90;53.80;;;;;;5030405;28;20013;-70
2021/08/14 09:35:41;;;;;;;10.38;3.33;;;24.50;54.70;;;;;;5032129;28;20060;-67
2021/08/14 09:38:10;;;;;;;8.10;3.70;;;24.90;53.10;;;;;;5050485;28;20025;-70
2021/08/14 09:40:43;;;;;;;11.73;4.13;;;24.90;53.60;;;;;;5053503;28;20070;-69
2021/08/14 09:43:10;;;;;;;9.63;3.90;;;25.00;52.70;;;;;;5064174;28;20490;-69
2021/08/14 09:45:37;;;;;;;9.88;3.25;;;24.80;53.60;;;;;;5060870;28;20056;-68
2021/08/14 09:48:20;;;;;;;11.23;3.67;;;24.50;55.00;;;;;;5050744;28;20024;-66
2021/08/14 09:50:45;;;;;;;9.63;3.25;;;24.60;56.00;;;;;;5069750;28;20105;-68
2021/08/14 09:53:16;;;;;;;6.75;2.70;;;24.40;56.20;;;;;;5068645;28;20485;-69
2021/08/14 09:55:44;;;;;;;8.00;3.03;;;24.80;53.50;;;;;;5050436;28;20017;-71
2021/08/14 09:58:10;;;;;;;11.55;3.10;;;25.00;52.00;;;;;;5072890;28;20017;-68
2021/08/14 10:00:38;;;;;;;8.55;2.67;;;24.40;54.90;;;;;;5072748;28;20501;-67
2021/08/14 10:03:04;;;;;;;8.30;2.92;;;24.40;54.40;;;;;;5073064;28;20439;-69
2021/08/14 10:05:33;;;;;;;8.57;2.50;;;24.50;52.90;;;;;;5072193;28;20029;-67
2021/08/14 10:08:00;;;;;;;9.73;2.95;;;24.50;53.00;;;;;;5068800;28;20079;-67
2021/08/14 10:10:27;;;;;;;8.25;2.72;;;24.20;54.30;;;;;;5054491;28;20024;-68
2021/08/14 10:12:54;;;;;;;8.18;2.90;;;24.20;54.40;;;;;;5072487;28;20055;-68
2021/08/14 10:15:20;;;;;;;8.60;2.65;;;24.30;53.50;;;;;;5073462;28;20378;-66
2021/08/14 10:17:47;;;;;;;8.82;2.72;;;24.30;53.70;;;;;;5055260;28;20024;-68
2021/08/14 10:20:13;;;;;;;9.02;2.40;;;24.60;52.60;;;;;;5054146;28;20028;-68
2021/08/14 10:22:39;;;;;;;5.97;2.17;;;24.60;52.60;;;;;;5057768;28;20399;-68
2021/08/14 10:25:05;;;;;;;10.35;2.50;;;24.50;52.50;;;;;;5033529;28;20029;-67
2021/08/14 10:27:54;;;;;;;5.03;2.10;;;24.40;53.00;;;;;;5070757;28;20030;-68
2021/08/14 10:30:42;;;;;;;5.95;2.25;;;24.50;54.20;;;;;;5073056;28;20024;-68
2021/08/14 10:33:28;;;;;;;6.60;2.33;;;24.80;50.70;;;;;;5054876;28;20028;-68
2021/08/14 10:36:16;;;;;;;5.00;1.92;;;24.90;50.70;;;;;;5055136;28;20039;-69
2021/08/14 10:38:46;;;;;;;9.82;2.65;;;24.40;52.50;;;;;;5059166;28;20047;-69
2021/08/14 10:41:13;;;;;;;6.97;2.40;;;24.80;51.00;;;;;;5035114;28;20025;-70
2021/08/14 10:43:54;;;;;;;5.75;2.17;;;24.10;52.90;;;;;;5035417;28;20032;-68
2021/08/14 10:46:31;;;;;;;7.05;2.30;;;23.90;53.80;;;;;;5052202;28;20033;-69
2021/08/14 10:48:58;;;;;;;7.72;2.35;;;24.20;53.40;;;;;;5069707;28;20048;-68
2021/08/14 10:51:46;;;;;;;8.15;2.30;;;25.20;48.00;;;;;;5052581;28;20029;-66
2021/08/14 10:54:13;;;;;;;8.63;2.28;;;25.30;47.10;;;;;;5052714;28;20409;-67
2021/08/14 10:56:52;;;;;;;5.85;2.00;;;25.50;47.10;;;;;;5071665;28;20028;-67
2021/08/14 10:59:37;;;;;;;6.40;2.13;;;25.10;48.60;;;;;;5057113;28;20029;-67
2021/08/14 11:04:35;;;;;;;;;;;25.40;47.10;;;;;;5061418;28;20048;-68
2021/08/14 11:07:19;;;;;;;6.55;2.10;;;24.70;50.00;;;;;;5053013;28;19905;-68
2021/08/14 11:09:53;;;;;;;6.45;2.15;;;25.20;48.80;;;;;;5061747;28;20032;-67
2021/08/14 11:12:58;;;;;;;9.50;2.58;;;24.90;50.90;;;;;;5057696;28;20033;-68
2021/08/14 11:15:40;;;;;;;8.05;2.30;;;24.10;52.60;;;;;;4955134;28;20027;-68
2021/08/14 11:18:06;;;;;;;5.97;2.10;;;24.40;51.40;;;;;;4961227;28;20030;-68
2021/08/14 11:20:36;;;;;;;9.60;2.50;;;24.50;50.90;;;;;;5028029;28;20116;-69
2021/08/14 11:23:04;;;;;;;6.10;2.30;;;24.30;53.00;;;;;;5035782;28;20112;-70
2021/08/14 11:25:33;;;;;;;11.07;2.67;;;24.00;54.30;;;;;;5065209;28;20096;-67
2021/08/14 11:28:06;;;;;;;9.32;2.60;;;23.60;56.30;;;;;;5052883;28;20406;-66
2021/08/14 11:30:43;;;;;;;6.25;2.60;;;24.20;52.50;;;;;;5041429;28;20609;-67
2021/08/14 11:33:10;;;;;;;7.50;2.50;;;25.00;49.20;;;;;;5065156;28;20049;-68
2021/08/14 11:35:38;;;;;;;8.77;3.00;;;25.20;49.00;;;;;;5050355;28;20092;-68
2021/08/14 11:38:06;;;;;;;11.30;2.70;;;24.90;50.80;;;;;;5047298;28;20462;-67
2021/08/14 11:40:34;;;;;;;7.05;2.53;;;24.70;51.90;;;;;;5053293;28;20048;-67
2021/08/14 11:43:12;;;;;;;5.95;2.33;;;24.70;50.50;;;;;;5054344;28;20017;-67
2021/08/14 11:45:39;;;;;;;10.35;3.00;;;24.30;53.10;;;;;;5071597;28;20024;-66
2021/08/14 11:48:12;;;;;;;10.55;2.67;;;24.40;54.00;;;;;;5071822;28;20028;-66
2021/08/14 11:50:43;;;;;;;14.13;4.45;;;24.60;53.00;;;;;;5054178;28;20028;-67
2021/08/14 11:53:13;;;;;;;;;;;23.80;54.90;;;;;;5063465;28;20601;-67
2021/08/14 11:55:39;;;;;;;13.20;2.73;;;24.40;53.60;;;;;;5048490;28;19918;-67
2021/08/14 11:58:05;;;;;;;7.68;2.90;;;24.40;54.50;;;;;;5037928;28;20359;-67
2021/08/14 12:00:34;;;;;;;5.85;2.20;;;24.80;52.80;;;;;;5049167;28;20441;-67
2021/08/14 12:03:10;;;;;;;10.27;3.45;;;24.60;52.70;;;;;;5031286;28;20021;-66
2021/08/14 12:05:41;;;;;;;7.00;2.40;;;24.80;51.80;;;;;;5052115;28;20040;-68
2021/08/14 12:08:09;;;;;;;8.38;2.75;;;24.10;54.30;;;;;;5037177;28;20033;-67
2021/08/14 12:10:36;;;;;;;6.40;2.22;;;23.90;55.20;;;;;;5047948;28;20522;-66
2021/08/14 12:13:06;;;;;;;7.47;2.72;;;24.50;53.00;;;;;;5057272;28;20028;-67
2021/08/14 12:15:39;;;;;;;7.32;2.33;;;25.20;50.50;;;;;;5047890;28;20021;-67
2021/08/14 12:18:06;;;;;;;6.53;2.30;;;24.60;53.20;;;;;;5046059;28;20465;-68
2021/08/14 12:20:33;;;;;;;7.00;2.50;;;24.50;52.60;;;;;;5030578;28;20025;-66
2021/08/14 12:23:24;;;;;;;8.07;2.65;;;24.00;53.30;;;;;;5048336;28;20040;-67
2021/08/14 12:25:54;;;;;;;7.88;2.45;;;24.20;54.10;;;;;;5037159;28;20041;-67
2021/08/14 12:28:25;;;;;;;9.18;2.75;;;24.10;54.30;;;;;;5049518;28;20029;-66
2021/08/14 12:30:51;;;;;;;9.38;2.85;;;24.00;54.20;;;;;;5050321;28;20043;-67
2021/08/14 12:33:34;;;;;;;7.57;2.60;;;24.00;56.30;;;;;;5061944;28;20020;-67
2021/08/14 12:36:04;;;;;;;7.20;2.05;;;24.00;55.90;;;;;;5050540;28;20071;-68
2021/08/14 12:38:32;;;;;;;10.27;2.47;;;23.80;54.50;;;;;;5050057;28;20136;-67
2021/08/14 12:41:19;;;;;;;6.00;2.05;;;24.20;54.10;;;;;;5050060;28;20124;-68
2021/08/14 12:43:46;;;;;;;7.20;2.13;;;23.90;54.70;;;;;;5048909;28;20090;-67
2021/08/14 12:46:18;;;;;;;8.75;2.50;;;24.30;53.90;;;;;;5050042;28;20040;-68
2021/08/14 12:49:19;;;;;;;8.77;2.90;;;24.40;53.20;;;;;;5033707;28;20082;-67
2021/08/14 12:51:53;;;;;;;6.20;2.28;;;24.60;51.60;;;;;;5047071;28;20426;-68